createdAt,value
2022-09-26T00:00:08.709Z,87.78
2022-09-26T00:05:13.623Z,87.07
2022-09-26T00:10:15.190Z,88.25
2022-09-26T00:15:16.732Z,87.99
2022-09-26T00:20:18.425Z,87.40
2022-09-26T00:25:20.223Z,87.80
2022-09-26T00:30:21.875Z,88.75
2022-09-26T00:35:23.463Z,88.70
2022-09-26T00:40:27.127Z,88.36
2022-09-26T00:45:30.570Z,88.90
2022-09-26T00:50:37.556Z,88.75
2022-09-26T00:55:50.253Z,88.22
2022-09-26T01:00:51.980Z,88.50
2022-09-26T01:05:53.995Z,88.79
2022-09-26T01:10:57.505Z,90.25
2022-09-26T01:15:59.060Z,90.00
2022-09-26T01:21:19.443Z,90.92
2022-09-26T01:27:08.427Z,91.57
2022-09-26T01:32:46.987Z,91.07
2022-09-26T01:38:10.253Z,90.63
2022-09-26T01:43:18.365Z,89.13
2022-09-26T01:48:27.813Z,90.23
2022-09-26T01:53:43.883Z,92.50
2022-09-26T01:58:50.167Z,93.99
2022-09-26T02:03:55.714Z,94.35
2022-09-26T02:09:01.334Z,94.19
2022-09-26T02:14:14.697Z,94.42
2022-09-26T02:19:24.406Z,94.26
2022-09-26T02:24:26.386Z,94.69
2022-09-26T02:29:28.035Z,95.44
2022-09-26T02:34:29.657Z,94.52
2022-09-26T02:39:31.396Z,94.86
2022-09-26T02:45:00.761Z,96.11
2022-09-26T02:50:08.388Z,95.08
2022-09-26T02:55:45.961Z,94.42
2022-09-26T03:01:00.722Z,94.78
2022-09-26T03:06:04.009Z,94.18
2022-09-26T03:11:10.784Z,94.90
2022-09-26T03:16:13.984Z,94.02
2022-09-26T03:21:15.915Z,95.73
2022-09-26T03:26:20.774Z,96.32
2022-09-26T03:31:28.960Z,96.23
2022-09-26T03:36:40.737Z,95.22
2022-09-26T03:41:44.308Z,95.06
2022-09-26T03:47:15.785Z,95.11
2022-09-26T03:52:19.568Z,95.51
2022-09-26T03:57:23.146Z,95.29
2022-09-26T04:02:30.675Z,95.98
2022-09-26T04:07:47.333Z,95.89
2022-09-26T04:12:48.944Z,96.50
2022-09-26T04:17:51.107Z,95.64
2022-09-26T04:22:55.094Z,96.70
2022-09-26T04:27:56.640Z,96.08
2022-09-26T04:32:58.270Z,95.99
2022-09-26T04:38:03.069Z,96.17
2022-09-26T04:43:04.888Z,94.87
2022-09-26T04:48:07.642Z,95.50
2022-09-26T04:53:19.360Z,96.51
2022-09-26T04:58:33.732Z,97.08
2022-09-26T05:03:37.851Z,96.58
2022-09-26T05:08:41.315Z,96.70
2022-09-26T05:13:43.763Z,95.00
2022-09-26T05:18:49.906Z,93.33
2022-09-26T05:24:10.970Z,93.09
2022-09-26T05:29:13.229Z,93.21
2022-09-26T05:34:26.422Z,94.33
2022-09-26T05:39:47.097Z,94.51
2022-09-26T05:44:49.263Z,95.55
2022-09-26T05:49:51.026Z,94.72
2022-09-26T05:54:56.508Z,95.40
2022-09-26T06:00:27.675Z,94.88
2022-09-26T06:05:32.318Z,96.24
2022-09-26T06:10:49.183Z,96.62
2022-09-26T06:15:52.051Z,95.50
2022-09-26T06:20:53.824Z,94.92
2022-09-26T06:25:55.540Z,96.35
2022-09-26T06:30:57.561Z,95.95
2022-09-26T06:36:19.415Z,93.70
2022-09-26T06:41:21.075Z,93.05
2022-09-26T06:46:22.695Z,93.36
2022-09-26T06:51:31.818Z,91.30
2022-09-26T06:56:33.461Z,92.54
2022-09-26T07:01:35.233Z,90.40
2022-09-26T07:06:45.113Z,90.67
2022-09-26T07:12:13.196Z,92.50
2022-09-26T07:17:24.039Z,92.89
2022-09-26T07:22:51.805Z,90.40
2022-09-26T07:27:53.524Z,90.24
2022-09-26T07:33:03.711Z,88.17
2022-09-26T07:38:13.034Z,87.29
2022-09-26T07:43:19.991Z,86.86
2022-09-26T07:48:43.391Z,87.14
2022-09-26T07:54:05.878Z,87.86
2022-09-26T07:59:07.455Z,86.74
2022-09-26T08:04:30.759Z,86.88
2022-09-26T08:09:33.232Z,87.96
2022-09-26T08:14:53.692Z,88.63
2022-09-26T08:20:02.202Z,89.40
2022-09-26T08:25:06.619Z,89.32
2022-09-26T08:30:25.680Z,88.32
2022-09-26T08:35:29.402Z,88.10
2022-09-26T08:40:55.006Z,87.06
2022-09-26T08:47:01.752Z,87.22
2022-09-26T08:52:44.190Z,86.84
2022-09-26T08:58:04.610Z,86.88
2022-09-26T09:03:24.794Z,87.87
2022-09-26T09:08:35.559Z,88.27
2022-09-26T09:14:07.432Z,87.32
2022-09-26T09:19:50.652Z,86.95
2022-09-26T09:25:21.692Z,85.99
2022-09-26T09:30:27.145Z,83.24
2022-09-26T09:35:31.463Z,82.72
2022-09-26T09:40:55.357Z,81.12
2022-09-26T09:46:28.583Z,80.98
2022-09-26T09:51:39.264Z,74.16
2022-09-26T09:57:03.042Z,71.33
2022-09-26T10:02:37.412Z,72.37
2022-09-26T10:07:45.098Z,70.57
2022-09-26T10:13:09.166Z,67.86
2022-09-26T10:18:56.409Z,63.84
2022-09-26T10:24:03.896Z,64.60
2022-09-26T10:29:33.806Z,65.25
2022-09-26T10:34:38.539Z,68.67
2022-09-26T10:39:58.435Z,64.83
2022-09-26T10:45:12.089Z,62.96
2022-09-26T10:50:32.462Z,63.23
2022-09-26T10:55:57.419Z,61.13
2022-09-26T11:01:00.524Z,58.53
2022-09-26T11:06:25.014Z,59.97
2022-09-26T11:11:33.689Z,59.64
2022-09-26T11:16:50.974Z,58.85
2022-09-26T11:22:17.108Z,60.14
2022-09-26T11:27:30.456Z,59.53
2022-09-26T11:32:40.795Z,62.30
2022-09-26T11:38:22.148Z,58.33
2022-09-26T11:43:27.294Z,58.53
2022-09-26T11:48:45.055Z,58.88
2022-09-26T11:54:45.618Z,58.22
2022-09-26T12:00:16.010Z,57.68
2022-09-26T12:05:44.227Z,55.25
2022-09-26T12:11:19.430Z,54.67
2022-09-26T12:16:58.744Z,53.17
2022-09-26T12:22:30.988Z,53.42
2022-09-26T12:27:43.772Z,53.26
2022-09-26T12:32:58.498Z,53.40
2022-09-26T12:38:25.951Z,54.22
2022-09-26T12:43:47.245Z,53.25
2022-09-26T12:49:10.554Z,53.23
2022-09-26T12:54:49.153Z,51.82
2022-09-26T13:00:11.008Z,50.82
2022-09-26T13:05:22.536Z,49.97
2022-09-26T13:10:39.424Z,49.64
2022-09-26T13:16:08.124Z,49.48
2022-09-26T13:21:13.945Z,49.57
2022-09-26T13:26:22.759Z,45.01
2022-09-26T13:31:40.227Z,45.69
2022-09-26T13:36:42.288Z,46.20
2022-09-26T13:41:48.731Z,47.99
2022-09-26T13:47:17.806Z,47.39
2022-09-26T13:52:41.136Z,47.64
2022-09-26T13:58:04.105Z,51.25
2022-09-26T14:03:18.365Z,48.07
2022-09-26T14:08:51.832Z,48.20
2022-09-26T14:14:18.398Z,46.12
2022-09-26T14:19:30.447Z,45.28
2022-09-26T14:24:45.622Z,45.97
2022-09-26T14:29:51.729Z,45.36
2022-09-26T14:34:53.328Z,45.36
2022-09-26T14:39:57.644Z,46.48
2022-09-26T14:45:08.373Z,46.22
2022-09-26T14:50:44.860Z,47.71
2022-09-26T14:56:06.196Z,47.64
2022-09-26T15:01:18.860Z,49.11
2022-09-26T15:06:21.833Z,48.27
2022-09-26T15:11:33.003Z,48.18
2022-09-26T15:16:37.798Z,48.47
2022-09-26T15:21:43.082Z,48.67
2022-09-26T15:26:44.688Z,48.79
2022-09-26T15:31:47.196Z,49.29
2022-09-26T15:36:55.997Z,49.03
2022-09-26T15:42:46.709Z,48.52
2022-09-26T15:47:48.285Z,55.67
2022-09-26T15:52:57.514Z,56.80
2022-09-26T15:58:01.340Z,59.91
2022-09-26T16:03:29.392Z,58.22
2022-09-26T16:08:36.413Z,59.49
2022-09-26T16:13:42.900Z,56.45
2022-09-26T16:18:53.086Z,59.89
2022-09-26T16:23:59.392Z,61.42
2022-09-26T16:29:01.640Z,62.30
2022-09-26T16:34:06.860Z,58.19
2022-09-26T16:39:21.136Z,57.98
2022-09-26T16:44:35.266Z,59.50
2022-09-26T16:49:46.458Z,56.74
2022-09-26T16:54:49.055Z,57.07
2022-09-26T16:59:51.490Z,56.40
2022-09-26T17:04:54.146Z,57.80
2022-09-26T17:09:55.686Z,57.08
2022-09-26T17:14:58.404Z,58.28
2022-09-26T17:20:01.851Z,58.34
2022-09-26T17:25:04.709Z,60.56
2022-09-26T17:30:14.980Z,58.61
2022-09-26T17:35:26.067Z,60.31
2022-09-26T17:40:33.572Z,59.51
2022-09-26T17:45:49.136Z,61.90
2022-09-26T17:50:50.890Z,61.46
2022-09-26T17:55:53.220Z,61.29
2022-09-26T18:00:54.860Z,62.35
2022-09-26T18:05:56.563Z,63.72
2022-09-26T18:11:01.157Z,62.85
2022-09-26T18:16:03.222Z,64.04
2022-09-26T18:21:06.386Z,65.40
2022-09-26T18:26:10.450Z,65.14
2022-09-26T18:31:12.195Z,64.67
2022-09-26T18:36:13.903Z,65.58
2022-09-26T18:41:18.751Z,66.27
2022-09-26T18:46:21.761Z,67.20
2022-09-26T18:51:23.323Z,65.88
2022-09-26T18:56:43.549Z,67.38
2022-09-26T19:01:45.184Z,65.93
2022-09-26T19:06:49.452Z,65.20
2022-09-26T19:11:51.110Z,65.99
2022-09-26T19:16:53.374Z,66.56
2022-09-26T19:21:57.202Z,65.37
2022-09-26T19:27:27.108Z,65.45
2022-09-26T19:32:32.580Z,65.57
2022-09-26T19:37:34.255Z,66.78
2022-09-26T19:42:35.821Z,67.69
2022-09-26T19:47:39.440Z,67.21
2022-09-26T19:52:41.059Z,67.37
2022-09-26T19:57:42.713Z,66.46
2022-09-26T20:02:45.976Z,66.66
2022-09-26T20:07:48.045Z,66.96
2022-09-26T20:12:49.683Z,65.98
2022-09-26T20:17:53.805Z,65.39
2022-09-26T20:22:56.526Z,66.23
2022-09-26T20:27:58.938Z,66.50
2022-09-26T20:33:01.033Z,67.21
2022-09-26T20:38:34.552Z,68.54
2022-09-26T20:43:37.998Z,68.66
2022-09-26T20:48:43.034Z,68.54
2022-09-26T20:53:44.613Z,70.06
2022-09-26T20:58:46.197Z,69.46
2022-09-26T21:03:52.274Z,70.66
2022-09-26T21:08:53.910Z,71.20
2022-09-26T21:13:55.443Z,71.45
2022-09-26T21:18:57.037Z,71.55
2022-09-26T21:23:59.133Z,71.65
2022-09-26T21:29:00.876Z,71.69
2022-09-26T21:34:03.345Z,72.32
2022-09-26T21:39:05.076Z,71.65
2022-09-26T21:44:18.166Z,72.74
2022-09-26T21:49:19.731Z,72.51
2022-09-26T21:54:25.292Z,73.31
2022-09-26T21:59:26.935Z,73.19
2022-09-26T22:04:28.924Z,74.28
2022-09-26T22:09:30.478Z,74.15
2022-09-26T22:14:32.068Z,74.22
2022-09-26T22:19:34.725Z,73.61
2022-09-26T22:24:37.024Z,74.69
2022-09-26T22:29:38.613Z,75.28
2022-09-26T22:34:40.161Z,74.57
2022-09-26T22:39:41.724Z,73.62
2022-09-26T22:44:43.301Z,73.55
2022-09-26T22:49:44.843Z,73.77
2022-09-26T22:54:46.381Z,73.44
2022-09-26T22:59:47.920Z,72.71
2022-09-26T23:04:49.532Z,72.94
2022-09-26T23:09:51.085Z,71.76
2022-09-26T23:14:52.616Z,71.48
2022-09-26T23:19:54.159Z,72.56
2022-09-26T23:24:55.800Z,72.17
2022-09-26T23:29:57.343Z,71.95
2022-09-26T23:34:58.913Z,70.70
2022-09-26T23:40:00.606Z,71.04
2022-09-26T23:45:02.222Z,71.17
2022-09-26T23:50:04.264Z,71.46
2022-09-26T23:55:06.318Z,72.42
